Time;durP1;ratioP1;P1;durP2;ratioP2;P2;SDS_P1;SDS_P2;PMS_P1;PMS_P2;Temp;Humidity;BMP_temperature;BMP_pressure;BME280_temperature;BME280_humidity;BME280_pressure;Samples;Min_cycle;Max_cycle;Signal;HPM_P1;HPM_P2
2021/06/26 00:01:45;;;;;;;5.07;1.98;;;;;;;;;;5014039;28;20038;-60
2021/06/26 00:04:12;;;;;;;7.15;2.25;;;;;;;;;;5020410;28;20022;-61
2021/06/26 00:06:38;;;;;;;5.38;2.10;;;;;;;;;;5020733;28;20060;-61
2021/06/26 00:09:04;;;;;;;11.05;2.40;;;;;;;;;;5020544;28;20543;-60
2021/06/26 00:11:30;;;;;;;6.60;2.30;;;;;;;;;;5017396;28;20033;-59
2021/06/26 00:13:55;;;;;;;9.35;2.45;;;;;;;;;;5023316;28;20610;-59
2021/06/26 00:16:21;;;;;;;11.02;2.30;;;;;;;;;;5018684;28;20050;-60
2021/06/26 00:18:46;;;;;;;12.27;2.35;;;;;;;;;;5015852;28;20500;-60
2021/06/26 00:21:12;;;;;;;8.82;2.30;;;;;;;;;;5014706;28;20033;-60
2021/06/26 00:23:38;;;;;;;5.95;2.15;;;;;;;;;;5015210;28;20119;-60
2021/06/26 00:26:04;;;;;;;10.63;2.20;;;;;;;;;;5030116;28;20060;-60
2021/06/26 00:28:29;;;;;;;17.98;2.50;;;;;;;;;;5011676;28;20087;-60
2021/06/26 00:30:55;;;;;;;9.52;1.85;;;;;;;;;;5018063;28;20053;-60
2021/06/26 00:33:21;;;;;;;11.63;3.22;;;;;;;;;;5018801;28;20175;-61
2021/06/26 00:35:46;;;;;;;8.43;1.92;;;;;;;;;;5013887;28;20030;-63
2021/06/26 00:38:12;;;;;;;9.48;2.20;;;;;;;;;;5011901;28;20434;-63
2021/06/26 00:40:37;;;;;;;10.40;2.28;;;;;;;;;;5012341;28;20045;-63
2021/06/26 00:43:03;;;;;;;5.97;2.22;;;;;;;;;;5013277;28;20037;-62
2021/06/26 00:45:29;;;;;;;11.88;2.88;;;;;;;;;;5015632;28;20395;-62
2021/06/26 00:47:54;;;;;;;4.22;1.85;;;;;;;;;;5014378;28;20526;-62
2021/06/26 00:50:26;;;;;;;14.10;2.70;;;;;;;;;;5012447;28;20515;-63
2021/06/26 00:52:51;;;;;;;10.07;2.85;;;;;;;;;;5010563;28;20392;-63
2021/06/26 00:55:18;;;;;;;9.70;2.20;;;;;;;;;;5021322;28;20041;-63
2021/06/26 00:57:57;;;;;;;6.30;2.20;;;;;;;;;;5015752;28;20499;-63
2021/06/26 01:00:24;;;;;;;8.40;2.95;;;;;;;;;;5001748;28;20054;-65
2021/06/26 01:02:49;;;;;;;13.32;2.65;;;;;;;;;;4991518;28;20030;-60
2021/06/26 01:05:15;;;;;;;14.48;2.30;;;;;;;;;;4994975;28;20139;-60
2021/06/26 01:07:40;;;;;;;5.45;1.95;;;;;;;;;;4989085;28;20042;-60
2021/06/26 01:10:07;;;;;;;7.13;1.88;;;;;;;;;;4992279;28;20023;-60
2021/06/26 01:12:33;;;;;;;11.48;1.98;;;;;;;;;;5000063;28;20120;-60
2021/06/26 01:14:58;;;;;;;5.68;1.70;;;;;;;;;;4993382;28;20161;-61
2021/06/26 01:17:23;;;;;;;11.43;2.58;;;;;;;;;;4993135;28;20060;-61
2021/06/26 01:19:50;;;;;;;5.22;2.10;;;;;;;;;;4989824;28;20038;-61
2021/06/26 01:22:21;;;;;;;8.52;2.00;;;;;;;;;;4991005;28;20439;-60
2021/06/26 01:24:48;;;;;;;6.68;2.30;;;;;;;;;;4994246;28;20025;-60
2021/06/26 01:27:14;;;;;;;7.40;1.77;;;;;;;;;;4995666;28;20108;-60
2021/06/26 01:29:46;;;;;;;8.10;1.88;;;;;;;;;;4994094;28;20030;-60
2021/06/26 01:32:11;;;;;;;5.00;1.48;;;;;;;;;;4993772;28;20076;-60
2021/06/26 01:34:37;;;;;;;5.68;1.83;;;;;;;;;;4990713;28;20460;-61
2021/06/26 01:37:02;;;;;;;6.18;2.40;;;;;;;;;;4993388;28;20021;-61
2021/06/26 01:39:28;;;;;;;8.18;2.08;;;;;;;;;;4997998;28;20485;-60
2021/06/26 01:41:53;;;;;;;9.93;2.75;;;;;;;;;;4993972;28;20041;-61
2021/06/26 01:44:19;;;;;;;12.02;2.28;;;;;;;;;;4993471;28;20561;-60
2021/06/26 01:46:44;;;;;;;3.50;1.77;;;;;;;;;;4995660;28;20034;-61
2021/06/26 01:49:12;;;;;;;5.22;1.77;;;;;;;;;;4990989;28;20026;-60
2021/06/26 01:51:38;;;;;;;5.85;1.65;;;;;;;;;;4993086;28;20026;-60
2021/06/26 01:54:08;;;;;;;4.13;1.80;;;;;;;;;;4991838;28;20474;-61
2021/06/26 01:56:33;;;;;;;9.13;1.90;;;;;;;;;;4991963;28;20077;-61
2021/06/26 01:58:59;;;;;;;12.40;3.22;;;;;;;;;;4999872;28;20057;-61
2021/06/26 02:01:25;;;;;;;7.30;2.22;;;;;;;;;;4995064;28;20294;-61
2021/06/26 02:03:51;;;;;;;7.55;1.98;;;;;;;;;;4996693;28;20552;-61
2021/06/26 02:06:16;;;;;;;5.10;1.77;;;;;;;;;;4996695;28;20026;-61
2021/06/26 02:08:42;;;;;;;6.13;1.60;;;;;;;;;;4999674;28;20037;-60
2021/06/26 02:11:08;;;;;;;7.88;2.15;;;;;;;;;;4993620;28;20113;-61
2021/06/26 02:13:33;;;;;;;5.95;1.98;;;;;;;;;;4995411;28;20042;-59
2021/06/26 02:15:59;;;;;;;6.85;2.10;;;;;;;;;;4997779;28;20054;-61
2021/06/26 02:18:24;;;;;;;6.45;1.55;;;;;;;;;;4994018;28;20068;-61
2021/06/26 02:20:50;;;;;;;6.07;1.90;;;;;;;;;;4990933;28;20602;-60
2021/06/26 02:23:15;;;;;;;3.65;1.60;;;;;;;;;;4996743;28;20555;-61
2021/06/26 02:25:41;;;;;;;5.47;1.50;;;;;;;;;;4998515;28;20026;-60
2021/06/26 02:28:06;;;;;;;3.95;1.40;;;;;;;;;;4990657;28;20161;-61
2021/06/26 02:30:32;;;;;;;7.00;1.80;;;;;;;;;;4991701;28;20022;-61
2021/06/26 02:32:57;;;;;;;5.05;1.48;;;;;;;;;;4995622;28;20421;-63
2021/06/26 02:35:23;;;;;;;7.13;1.50;;;;;;;;;;4990534;28;20293;-63
2021/06/26 02:37:48;;;;;;;3.92;1.95;;;;;;;;;;4993228;28;20041;-62
2021/06/26 02:40:14;;;;;;;5.18;1.38;;;;;;;;;;4994084;28;20040;-63
2021/06/26 02:42:40;;;;;;;9.55;1.52;;;;;;;;;;4997261;28;20033;-63
2021/06/26 02:45:06;;;;;;;2.85;1.40;;;;;;;;;;4995389;28;20157;-63
2021/06/26 02:47:32;;;;;;;7.53;1.52;;;;;;;;;;4992479;28;20421;-63
2021/06/26 02:49:57;;;;;;;7.82;1.90;;;;;;;;;;4998270;28;20038;-62
2021/06/26 02:52:23;;;;;;;5.88;1.85;;;;;;;;;;4998534;28;20439;-62
2021/06/26 02:54:49;;;;;;;7.28;1.73;;;;;;;;;;4996527;28;20452;-63
2021/06/26 02:57:15;;;;;;;4.53;2.00;;;;;;;;;;4989656;28;20042;-62
2021/06/26 02:59:41;;;;;;;4.13;1.52;;;;;;;;;;4992495;28;20030;-62
2021/06/26 03:02:06;;;;;;;6.15;1.48;;;;;;;;;;4990514;28;20116;-63
2021/06/26 03:04:32;;;;;;;9.40;1.50;;;;;;;;;;5002330;28;20068;-59
2021/06/26 03:06:57;;;;;;;4.00;1.38;;;;;;;;;;4995087;28;20034;-60
2021/06/26 03:09:23;;;;;;;9.60;1.90;;;;;;;;;;4993598;28;20041;-60
2021/06/26 03:11:48;;;;;;;7.68;1.80;;;;;;;;;;4994936;28;20073;-59
2021/06/26 03:14:14;;;;;;;5.85;1.60;;;;;;;;;;5001222;28;20034;-59
2021/06/26 03:16:39;;;;;;;5.75;2.05;;;;;;;;;;4994641;28;20121;-60
2021/06/26 03:19:05;;;;;;;5.47;1.50;;;;;;;;;;4999646;28;20078;-60
2021/06/26 03:21:30;;;;;;;5.22;1.40;;;;;;;;;;4994037;28;20025;-60
2021/06/26 03:23:56;;;;;;;3.42;1.20;;;;;;;;;;4997175;28;20029;-61
2021/06/26 03:26:21;;;;;;;6.68;1.50;;;;;;;;;;4993805;28;20485;-60
2021/06/26 03:28:47;;;;;;;8.13;1.50;;;;;;;;;;4999065;28;20412;-60
2021/06/26 03:31:13;;;;;;;4.80;1.50;;;;;;;;;;4996485;28;20042;-60
2021/06/26 03:33:38;;;;;;;4.55;1.55;;;;;;;;;;4998623;28;20038;-63
2021/06/26 03:36:04;;;;;;;3.85;2.08;;;;;;;;;;4993622;28;20045;-63
2021/06/26 03:38:30;;;;;;;2.35;1.35;;;;;;;;;;4980712;28;20026;-63
2021/06/26 03:40:55;;;;;;;6.90;1.50;;;;;;;;;;4993767;28;20405;-63
2021/06/26 03:43:22;;;;;;;7.15;1.88;;;;;;;;;;4998268;28;20033;-63
2021/06/26 03:45:48;;;;;;;9.20;1.80;;;;;;;;;;4997158;28;20026;-62
2021/06/26 03:48:13;;;;;;;5.93;1.70;;;;;;;;;;4993858;28;20041;-63
2021/06/26 03:50:40;;;;;;;7.57;1.90;;;;;;;;;;4996625;28;20378;-63
2021/06/26 03:53:06;;;;;;;8.20;1.60;;;;;;;;;;4988217;28;20034;-63
2021/06/26 03:55:32;;;;;;;3.55;1.55;;;;;;;;;;4995982;28;20212;-63
2021/06/26 03:57:57;;;;;;;5.45;1.63;;;;;;;;;;4992543;28;20045;-63
2021/06/26 04:00:23;;;;;;;3.58;1.50;;;;;;;;;;4996737;28;20037;-63
2021/06/26 04:02:48;;;;;;;7.20;1.65;;;;;;;;;;4994179;28;20157;-62
2021/06/26 04:05:13;;;;;;;6.75;1.60;;;;;;;;;;4994741;28;20443;-61
2021/06/26 04:07:39;;;;;;;5.55;1.80;;;;;;;;;;4991771;28;20034;-60
2021/06/26 04:10:06;;;;;;;12.77;2.00;;;;;;;;;;4994754;28;20030;-61
2021/06/26 04:12:32;;;;;;;5.80;1.60;;;;;;;;;;4993022;28;20033;-60
2021/06/26 04:14:57;;;;;;;3.65;1.45;;;;;;;;;;4992725;28;20050;-61
2021/06/26 04:17:23;;;;;;;10.07;1.55;;;;;;;;;;4998896;28;20040;-61
2021/06/26 04:19:48;;;;;;;6.45;1.60;;;;;;;;;;4993572;28;20382;-61
2021/06/26 04:22:14;;;;;;;8.25;1.60;;;;;;;;;;4998277;28;20519;-60
2021/06/26 04:24:40;;;;;;;4.47;1.35;;;;;;;;;;4997577;28;20105;-61
2021/06/26 04:27:06;;;;;;;3.90;1.55;;;;;;;;;;4991173;28;20030;-60
2021/06/26 04:29:31;;;;;;;4.65;1.23;;;;;;;;;;4993935;28;20055;-61
2021/06/26 04:31:58;;;;;;;4.05;1.30;;;;;;;;;;4999474;28;20038;-60
2021/06/26 04:34:23;;;;;;;4.40;1.23;;;;;;;;;;4990547;28;20035;-60
2021/06/26 04:36:49;;;;;;;8.65;1.55;;;;;;;;;;4993128;28;20041;-60
2021/06/26 04:39:15;;;;;;;4.82;1.40;;;;;;;;;;4990984;28;20038;-59
2021/06/26 04:41:41;;;;;;;4.68;1.50;;;;;;;;;;4998265;28;20037;-60
2021/06/26 04:44:06;;;;;;;5.45;1.52;;;;;;;;;;4992800;28;20030;-60
2021/06/26 04:46:32;;;;;;;2.55;1.20;;;;;;;;;;4995478;28;20089;-61
2021/06/26 04:48:59;;;;;;;2.67;1.02;;;;;;;;;;4989925;28;20031;-61
2021/06/26 04:51:25;;;;;;;3.08;1.25;;;;;;;;;;5001201;28;20065;-61
2021/06/26 04:53:51;;;;;;;6.00;1.10;;;;;;;;;;4991686;28;20400;-61
2021/06/26 04:56:17;;;;;;;3.78;1.00;;;;;;;;;;4992809;28;20101;-61
2021/06/26 04:58:42;;;;;;;4.25;1.10;;;;;;;;;;4998411;28;20475;-61
2021/06/26 05:01:08;;;;;;;3.60;0.90;;;;;;;;;;4992094;28;20054;-61
2021/06/26 05:03:33;;;;;;;8.35;1.10;;;;;;;;;;4993025;28;20532;-60
2021/06/26 05:06:00;;;;;;;2.85;0.90;;;;;;;;;;4991049;28;20116;-61
2021/06/26 05:08:26;;;;;;;3.72;0.80;;;;;;;;;;4992448;28;20173;-61
2021/06/26 05:10:52;;;;;;;4.32;0.93;;;;;;;;;;4990264;28;20657;-60
2021/06/26 05:13:17;;;;;;;5.07;0.80;;;;;;;;;;4993692;28;20210;-61
2021/06/26 05:15:44;;;;;;;4.53;0.70;;;;;;;;;;4999032;28;20042;-60
2021/06/26 05:18:10;;;;;;;4.85;0.80;;;;;;;;;;4994365;28;20044;-61
2021/06/26 05:20:37;;;;;;;5.63;1.00;;;;;;;;;;4990612;28;20053;-60
2021/06/26 05:23:16;;;;;;;2.72;0.77;;;;;;;;;;4993190;28;20049;-60
2021/06/26 05:25:42;;;;;;;3.53;1.02;;;;;;;;;;5002310;28;20049;-61
2021/06/26 05:28:08;;;;;;;4.40;0.60;;;;;;;;;;4994691;28;20482;-61
2021/06/26 05:30:34;;;;;;;3.45;0.68;;;;;;;;;;4997098;28;20247;-60
2021/06/26 05:32:59;;;;;;;6.15;0.70;;;;;;;;;;5003088;28;20048;-60
2021/06/26 05:35:25;;;;;;;4.57;0.80;;;;;;;;;;4998405;28;20038;-60
2021/06/26 05:37:51;;;;;;;7.53;0.82;;;;;;;;;;4994241;28;20057;-60
2021/06/26 05:40:16;;;;;;;2.03;0.47;;;;;;;;;;4996120;28;20033;-60
2021/06/26 05:42:42;;;;;;;4.30;0.90;;;;;;;;;;4996647;28;20026;-60
2021/06/26 05:45:08;;;;;;;3.38;0.63;;;;;;;;;;4995457;28;20022;-60
2021/06/26 05:47:33;;;;;;;1.10;0.47;;;;;;;;;;4997712;28;20065;-60
2021/06/26 05:49:58;;;;;;;1.33;0.45;;;;;;;;;;4996248;28;20038;-60
2021/06/26 05:52:24;;;;;;;3.13;0.80;;;;;;;;;;4993745;28;20073;-60
2021/06/26 05:54:49;;;;;;;1.13;0.52;;;;;;;;;;5000391;28;20072;-59
2021/06/26 05:57:15;;;;;;;2.65;0.60;;;;;;;;;;5003932;28;20476;-59
2021/06/26 05:59:41;;;;;;;6.72;0.85;;;;;;;;;;5001983;28;20045;-59
2021/06/26 06:02:12;;;;;;;2.95;0.50;;;;;;;;;;4994283;28;20112;-60
2021/06/26 06:04:39;;;;;;;1.67;0.30;;;;;;;;;;4993738;28;20045;-62
2021/06/26 06:07:04;;;;;;;2.03;0.40;;;;;;;;;;4995986;28;20091;-62
2021/06/26 06:09:29;;;;;;;4.88;0.25;;;;;;;;;;4991811;28;20037;-61
2021/06/26 06:11:55;;;;;;;0.50;0.20;;;;;;;;;;4993042;28;20033;-62
2021/06/26 06:14:20;;;;;;;7.22;0.57;;;;;;;;;;4991721;28;20116;-62
2021/06/26 06:16:46;;;;;;;1.80;0.40;;;;;;;;;;4994422;28;20484;-62
2021/06/26 06:19:11;;;;;;;2.17;0.60;;;;;;;;;;4997876;28;20022;-62
2021/06/26 06:21:37;;;;;;;4.38;0.77;;;;;;;;;;4996791;28;20054;-62
2021/06/26 06:24:03;;;;;;;2.05;0.30;;;;;;;;;;4993621;28;20026;-62
2021/06/26 06:26:29;;;;;;;4.85;0.38;;;;;;;;;;4992692;28;20088;-62
2021/06/26 06:28:54;;;;;;;3.92;0.32;;;;;;;;;;5000022;28;20038;-62
2021/06/26 06:31:20;;;;;;;1.85;0.65;;;;;;;;;;4993456;28;20037;-62
2021/06/26 06:33:45;;;;;;;3.30;0.50;;;;;;;;;;4990839;28;20026;-62
2021/06/26 06:36:10;;;;;;;6.80;0.40;;;;;;;;;;4991099;28;20046;-61
2021/06/26 06:38:36;;;;;;;1.95;0.30;;;;;;;;;;4997205;28;20072;-61
2021/06/26 06:41:02;;;;;;;8.20;0.22;;;;;;;;;;4998256;28;20048;-61
2021/06/26 06:43:28;;;;;;;3.58;0.50;;;;;;;;;;5000296;28;20030;-61
2021/06/26 06:45:54;;;;;;;7.75;0.45;;;;;;;;;;4995923;28;20022;-61
2021/06/26 06:48:20;;;;;;;3.00;0.35;;;;;;;;;;4998787;28;20080;-62
2021/06/26 06:50:45;;;;;;;1.90;0.57;;;;;;;;;;4997686;28;20452;-61
2021/06/26 06:53:11;;;;;;;0.88;0.20;;;;;;;;;;5001635;28;20020;-61
2021/06/26 06:55:36;;;;;;;3.03;0.20;;;;;;;;;;5002079;28;20030;-62
2021/06/26 06:58:02;;;;;;;1.92;0.38;;;;;;;;;;4996603;28;20488;-62
2021/06/26 07:00:27;;;;;;;4.78;0.70;;;;;;;;;;4996974;28;20114;-62
2021/06/26 07:02:53;;;;;;;6.95;0.55;;;;;;;;;;5001348;28;20034;-60
2021/06/26 07:05:18;;;;;;;3.20;0.43;;;;;;;;;;4990778;28;20113;-60
2021/06/26 07:07:44;;;;;;;2.25;0.22;;;;;;;;;;4992253;28;20088;-60
2021/06/26 07:10:10;;;;;;;0.17;0.10;;;;;;;;;;4997525;28;20048;-59
2021/06/26 07:12:36;;;;;;;1.80;0.17;;;;;;;;;;4994702;28;20110;-60
2021/06/26 07:15:03;;;;;;;3.10;0.20;;;;;;;;;;4987914;28;20558;-60
2021/06/26 07:17:28;;;;;;;3.00;0.40;;;;;;;;;;4992735;28;20038;-59
2021/06/26 07:19:54;;;;;;;3.65;0.30;;;;;;;;;;4995345;28;20036;-59
2021/06/26 07:22:19;;;;;;;2.95;0.30;;;;;;;;;;4989053;28;20453;-59
2021/06/26 07:24:45;;;;;;;1.65;0.28;;;;;;;;;;4990901;28;20034;-63
2021/06/26 07:27:10;;;;;;;3.53;0.40;;;;;;;;;;4990693;28;20092;-60
2021/06/26 07:29:36;;;;;;;1.20;0.20;;;;;;;;;;4991638;28;20030;-59
2021/06/26 07:32:02;;;;;;;3.92;0.40;;;;;;;;;;4995247;28;20026;-60
2021/06/26 07:34:27;;;;;;;3.15;0.38;;;;;;;;;;4991368;28;20449;-60
2021/06/26 07:36:53;;;;;;;2.75;0.40;;;;;;;;;;4995503;28;20120;-60
2021/06/26 07:39:19;;;;;;;3.40;0.60;;;;;;;;;;4990422;28;20034;-59
2021/06/26 07:41:44;;;;;;;1.90;0.43;;;;;;;;;;4996813;28;20037;-59
2021/06/26 07:44:10;;;;;;;5.28;0.70;;;;;;;;;;4992271;28;20037;-59
2021/06/26 07:46:35;;;;;;;1.38;0.30;;;;;;;;;;4993336;28;20022;-58
2021/06/26 07:49:01;;;;;;;3.97;0.30;;;;;;;;;;4994519;28;20034;-59
2021/06/26 07:51:26;;;;;;;1.73;0.30;;;;;;;;;;4993907;28;20113;-59
2021/06/26 07:53:52;;;;;;;1.13;0.20;;;;;;;;;;4995454;28;20128;-59
2021/06/26 07:56:17;;;;;;;2.95;0.17;;;;;;;;;;4994622;28;20100;-59
2021/06/26 07:58:43;;;;;;;2.28;0.38;;;;;;;;;;4991421;28;20034;-59
2021/06/26 08:01:08;;;;;;;1.90;0.35;;;;;;;;;;4988190;28;20038;-59
2021/06/26 08:03:34;;;;;;;2.50;0.43;;;;;;;;;;4996545;28;20038;-59
2021/06/26 08:05:59;;;;;;;8.73;0.75;;;;;;;;;;4992808;28;20564;-59
2021/06/26 08:08:25;;;;;;;1.45;0.30;;;;;;;;;;4993145;28;20126;-59
2021/06/26 08:10:50;;;;;;;3.00;0.32;;;;;;;;;;4992066;28;20061;-59
2021/06/26 08:13:16;;;;;;;1.85;0.47;;;;;;;;;;4998653;28;20030;-59
2021/06/26 08:15:43;;;;;;;1.55;0.30;;;;;;;;;;4998280;28;20038;-59
2021/06/26 08:18:09;;;;;;;3.78;0.45;;;;;;;;;;4994888;28;20085;-59
2021/06/26 08:20:37;;;;;;;2.13;0.28;;;;;;;;;;4993646;28;20042;-60
2021/06/26 08:23:03;;;;;;;1.13;0.30;;;;;;;;;;4994641;28;20034;-60
2021/06/26 08:25:29;;;;;;;2.20;0.22;;;;;;;;;;4993376;28;20069;-60
2021/06/26 08:27:55;;;;;;;4.63;0.43;;;;;;;;;;4987644;28;20471;-60
2021/06/26 08:30:21;;;;;;;4.85;0.68;;;;;;;;;;4992829;28;20030;-60
2021/06/26 08:32:47;;;;;;;2.53;0.30;;;;;;;;;;4991941;28;20036;-60
2021/06/26 08:35:13;;;;;;;1.02;0.28;;;;;;;;;;4989140;28;20030;-64
2021/06/26 08:37:39;;;;;;;5.13;0.40;;;;;;;;;;4989451;28;20057;-53
2021/06/26 08:40:07;;;;;;;2.90;1.00;;;;;;;;;;5000147;28;20042;-49
2021/06/26 08:42:33;;;;;;;3.95;0.50;;;;;;;;;;4988402;28;20412;-52
2021/06/26 08:45:01;;;;;;;5.30;0.40;;;;;;;;;;4992310;28;20615;-49
2021/06/26 08:47:27;;;;;;;9.10;0.70;;;;;;;;;;4995136;28;20029;-50
2021/06/26 08:49:53;;;;;;;1.63;0.22;;;;;;;;;;4990919;28;20037;-49
2021/06/26 08:52:19;;;;;;;5.65;0.30;;;;;;;;;;4997019;28;20040;-48
2021/06/26 08:54:45;;;;;;;1.58;0.30;;;;;;;;;;4994190;28;20030;-49
2021/06/26 08:57:10;;;;;;;3.20;0.30;;;;;;;;;;4994524;28;20034;-49
2021/06/26 08:59:36;;;;;;;3.65;0.40;;;;;;;;;;4995597;28;20553;-54
2021/06/26 09:02:02;;;;;;;2.47;0.10;;;;;;;;;;5002661;28;20045;-48
2021/06/26 09:04:27;;;;;;;4.95;0.35;;;;;;;;;;4996765;28;20481;-48
2021/06/26 09:06:55;;;;;;;0.93;0.20;;;;;;;;;;5007638;28;20408;-47
2021/06/26 09:09:38;;;;;;;4.38;0.47;;;;;;;;;;5006876;28;20038;-46
2021/06/26 09:12:03;;;;;;;2.22;0.55;;;;;;;;;;4995580;28;20211;-49
2021/06/26 09:14:29;;;;;;;5.45;1.00;;;;;;;;;;4999487;28;20037;-49
2021/06/26 09:16:55;;;;;;;2.50;0.20;;;;;;;;;;4998251;28;20045;-49
2021/06/26 09:19:20;;;;;;;3.17;0.30;;;;;;;;;;4994775;28;20034;-48
2021/06/26 09:21:56;;;;;;;5.20;0.80;;;;;;;;;;5002408;28;20109;-47
2021/06/26 09:24:22;;;;;;;6.03;0.45;;;;;;;;;;4998378;28;20025;-48
2021/06/26 09:26:59;;;;;;;4.50;0.60;;;;;;;;;;4994806;28;20034;-47
2021/06/26 09:29:25;;;;;;;4.63;0.30;;;;;;;;;;4997300;28;20041;-47
2021/06/26 09:31:51;;;;;;;1.48;0.30;;;;;;;;;;4997488;28;20026;-48
2021/06/26 09:34:18;;;;;;;2.95;0.30;;;;;;;;;;4998962;28;20697;-48
2021/06/26 09:36:44;;;;;;;4.35;0.25;;;;;;;;;;4990315;28;20084;-48
2021/06/26 09:39:11;;;;;;;1.88;0.40;;;;;;;;;;4993631;28;20562;-50
2021/06/26 09:41:40;;;;;;;2.67;0.35;;;;;;;;;;4995417;28;20026;-50
2021/06/26 09:44:10;;;;;;;3.40;0.20;;;;;;;;;;4995767;28;20112;-54
2021/06/26 09:46:50;;;;;;;5.90;0.60;;;;;;;;;;4990517;28;20096;-52
2021/06/26 09:49:29;;;;;;;2.55;0.52;;;;;;;;;;4996051;28;20186;-55
2021/06/26 09:52:02;;;;;;;5.03;0.45;;;;;;;;;;4995693;28;20038;-54
2021/06/26 09:54:29;;;;;;;3.15;0.50;;;;;;;;;;4994207;28;20034;-52
2021/06/26 09:56:55;;;;;;;2.10;0.28;;;;;;;;;;5000290;28;20042;-51
2021/06/26 09:59:30;;;;;;;4.95;0.30;;;;;;;;;;5000922;28;20018;-53
2021/06/26 10:01:57;;;;;;;5.10;0.52;;;;;;;;;;4998176;28;20029;-53
2021/06/26 10:04:23;;;;;;;5.25;0.32;;;;;;;;;;5002580;28;20026;-54
2021/06/26 10:06:49;;;;;;;3.58;0.68;;;;;;;;;;4998277;28;20455;-53
2021/06/26 10:09:15;;;;;;;2.08;0.35;;;;;;;;;;5007274;28;20046;-53
2021/06/26 10:11:41;;;;;;;6.28;0.55;;;;;;;;;;4994433;28;20037;-53
2021/06/26 10:14:10;;;;;;;3.95;0.50;;;;;;;;;;4994669;28;20038;-54
2021/06/26 10:16:37;;;;;;;7.00;0.40;;;;;;;;;;4995170;28;20718;-52
2021/06/26 10:19:10;;;;;;;8.68;0.50;;;;;;;;;;4996593;28;20114;-54
2021/06/26 10:21:36;;;;;;;4.40;0.35;;;;;;;;;;5001665;28;20022;-54
2021/06/26 10:24:12;;;;;;;2.88;0.55;;;;;;;;;;4996447;28;20040;-55
2021/06/26 10:26:39;;;;;;;3.28;0.35;;;;;;;;;;5006318;28;20497;-50
2021/06/26 10:29:05;;;;;;;2.55;0.50;;;;;;;;;;4997361;28;20041;-53
2021/06/26 10:31:40;;;;;;;3.47;0.43;;;;;;;;;;5003446;28;20030;-52
2021/06/26 10:34:13;;;;;;;3.05;0.20;;;;;;;;;;4995666;28;20405;-53
2021/06/26 10:36:39;;;;;;;7.00;0.70;;;;;;;;;;4998145;28;20038;-53
2021/06/26 10:39:28;;;;;;;1.60;0.30;;;;;;;;;;4993223;28;20045;-54
2021/06/26 10:42:05;;;;;;;4.60;0.40;;;;;;;;;;5000880;28;20071;-50
2021/06/26 10:44:49;;;;;;;4.82;0.50;;;;;;;;;;4994344;28;20036;-54
2021/06/26 10:47:17;;;;;;;2.75;0.30;;;;;;;;;;4997786;28;20037;-52
2021/06/26 10:49:43;;;;;;;4.00;0.47;;;;;;;;;;4994585;28;20481;-54
2021/06/26 10:52:17;;;;;;;4.18;0.43;;;;;;;;;;4998130;28;20528;-53
2021/06/26 10:54:54;;;;;;;11.40;0.50;;;;;;;;;;5000814;28;20026;-54
2021/06/26 10:57:21;;;;;;;3.08;0.30;;;;;;;;;;4997072;28;20320;-50
2021/06/26 10:59:56;;;;;;;3.53;0.22;;;;;;;;;;5002593;28;20021;-51
2021/06/26 11:02:22;;;;;;;2.92;0.30;;;;;;;;;;5001941;28;20026;-54
2021/06/26 11:04:48;;;;;;;2.80;0.17;;;;;;;;;;4994922;28;20083;-54
2021/06/26 11:07:15;;;;;;;1.52;0.30;;;;;;;;;;4999072;28;20038;-52
2021/06/26 11:09:43;;;;;;;4.70;0.30;;;;;;;;;;4996858;28;20069;-51
2021/06/26 11:12:19;;;;;;;4.22;0.30;;;;;;;;;;4996304;28;20040;-54
2021/06/26 11:15:04;;;;;;;4.30;0.73;;;;;;;;;;4997753;28;20072;-54
2021/06/26 11:17:43;;;;;;;2.65;0.30;;;;;;;;;;5004258;28;20072;-53
2021/06/26 11:20:12;;;;;;;2.88;0.30;;;;;;;;;;4999127;28;20033;-53
2021/06/26 11:22:38;;;;;;;2.15;0.30;;;;;;;;;;4990330;28;20425;-54
2021/06/26 11:25:08;;;;;;;1.83;0.38;;;;;;;;;;4997166;28;20026;-53
2021/06/26 11:27:34;;;;;;;3.22;0.40;;;;;;;;;;4999826;28;20280;-54
2021/06/26 11:30:09;;;;;;;0.70;0.20;;;;;;;;;;5000585;28;21576;-53
2021/06/26 11:32:36;;;;;;;2.42;0.40;;;;;;;;;;4995953;28;20531;-54
2021/06/26 11:35:06;;;;;;;6.65;0.40;;;;;;;;;;4995643;28;20084;-53
2021/06/26 11:37:36;;;;;;;5.82;0.45;;;;;;;;;;4993633;28;20033;-53
2021/06/26 11:40:16;;;;;;;2.25;0.30;;;;;;;;;;5000235;28;20504;-56
2021/06/26 11:42:53;;;;;;;3.83;0.20;;;;;;;;;;4998690;28;20029;-60
2021/06/26 11:45:19;;;;;;;1.58;0.32;;;;;;;;;;5002992;28;20029;-61
2021/06/26 11:47:44;;;;;;;4.03;0.52;;;;;;;;;;4999163;28;20029;-60
2021/06/26 11:50:18;;;;;;;1.55;0.40;;;;;;;;;;4990438;28;20030;-61
2021/06/26 11:52:44;;;;;;;3.95;0.40;;;;;;;;;;4998420;28;20456;-60
2021/06/26 11:55:11;;;;;;;3.90;0.20;;;;;;;;;;4991337;28;20022;-60
2021/06/26 11:57:36;;;;;;;2.90;0.40;;;;;;;;;;4989284;28;20046;-59
2021/06/26 12:00:04;;;;;;;3.22;0.45;;;;;;;;;;4992878;28;20413;-61
2021/06/26 12:02:33;;;;;;;3.40;0.57;;;;;;;;;;4990517;28;20033;-59
2021/06/26 12:04:59;;;;;;;3.47;0.43;;;;;;;;;;4989489;28;20026;-61
2021/06/26 12:07:35;;;;;;;4.13;0.77;;;;;;;;;;4994113;28;20034;-60
2021/06/26 12:10:04;;;;;;;2.80;0.38;;;;;;;;;;4996634;28;20038;-60
2021/06/26 12:12:37;;;;;;;0.70;0.30;;;;;;;;;;4996157;28;20041;-60
2021/06/26 12:15:08;;;;;;;2.90;0.47;;;;;;;;;;4996643;28;20121;-60
2021/06/26 12:17:34;;;;;;;3.78;0.55;;;;;;;;;;4994236;28;20034;-60
2021/06/26 12:20:05;;;;;;;2.78;0.40;;;;;;;;;;4990887;28;20034;-60
2021/06/26 12:22:31;;;;;;;3.67;0.40;;;;;;;;;;4995992;28;20042;-60
2021/06/26 12:25:22;;;;;;;2.40;0.40;;;;;;;;;;4989926;28;20038;-61
2021/06/26 12:27:47;;;;;;;1.95;0.32;;;;;;;;;;4995078;28;20038;-60
2021/06/26 12:30:16;;;;;;;5.72;0.80;;;;;;;;;;4993751;28;20107;-61
2021/06/26 12:32:43;;;;;;;4.60;0.35;;;;;;;;;;4989808;28;20342;-60
2021/06/26 12:35:11;;;;;;;3.75;0.38;;;;;;;;;;4993394;28;20072;-60
2021/06/26 12:37:39;;;;;;;2.80;0.50;;;;;;;;;;4989101;28;20034;-59
2021/06/26 12:40:19;;;;;;;6.85;0.43;;;;;;;;;;4996897;28;20037;-60
2021/06/26 12:43:05;;;;;;;6.32;0.55;;;;;;;;;;4997251;28;20025;-60
2021/06/26 12:45:36;;;;;;;4.22;0.50;;;;;;;;;;4993212;28;20117;-60
2021/06/26 12:48:05;;;;;;;4.07;0.20;;;;;;;;;;4999891;28;20120;-60
2021/06/26 12:50:34;;;;;;;5.15;0.57;;;;;;;;;;4990637;28;20405;-59
2021/06/26 12:52:59;;;;;;;3.25;0.40;;;;;;;;;;4993063;28;20030;-60
2021/06/26 12:55:25;;;;;;;3.25;0.35;;;;;;;;;;4994341;28;20405;-60
2021/06/26 12:57:51;;;;;;;3.28;0.52;;;;;;;;;;4992285;28;20042;-60
2021/06/26 13:00:21;;;;;;;3.47;1.13;;;;;;;;;;4997160;28;20042;-61
2021/06/26 13:02:48;;;;;;;4.75;0.65;;;;;;;;;;4992038;28;20049;-61
2021/06/26 13:05:21;;;;;;;5.63;0.52;;;;;;;;;;4993501;28;20107;-59
2021/06/26 13:07:47;;;;;;;2.88;0.40;;;;;;;;;;5000398;28;20040;-59
2021/06/26 13:10:12;;;;;;;2.50;0.35;;;;;;;;;;4997270;28;20030;-60
2021/06/26 13:12:48;;;;;;;1.00;0.30;;;;;;;;;;4994334;28;20033;-60
2021/06/26 13:15:14;;;;;;;2.40;0.20;;;;;;;;;;4993258;28;20050;-56
2021/06/26 13:17:39;;;;;;;0.52;0.20;;;;;;;;;;4993568;28;20611;-58
2021/06/26 13:20:05;;;;;;;4.47;0.25;;;;;;;;;;4989333;28;20105;-57
2021/06/26 13:22:31;;;;;;;7.60;0.30;;;;;;;;;;4991616;28;20034;-58
2021/06/26 13:24:56;;;;;;;2.38;0.38;;;;;;;;;;4993112;28;20076;-62
2021/06/26 13:27:24;;;;;;;1.65;0.20;;;;;;;;;;4998110;28;20077;-62
2021/06/26 13:29:49;;;;;;;1.92;0.20;;;;;;;;;;5004973;28;20037;-62
2021/06/26 13:32:15;;;;;;;6.28;0.40;;;;;;;;;;4993298;28;20390;-63
2021/06/26 13:34:43;;;;;;;0.73;0.30;;;;;;;;;;4989767;28;20037;-65
2021/06/26 13:37:09;;;;;;;1.08;0.30;;;;;;;;;;4994445;28;20591;-65
2021/06/26 13:39:34;;;;;;;1.75;0.30;;;;;;;;;;4993058;28;20068;-66
2021/06/26 13:42:01;;;;;;;2.40;0.22;;;;;;;;;;4991812;28;20026;-66
2021/06/26 13:44:26;;;;;;;3.95;0.30;;;;;;;;;;4990546;28;20125;-71
2021/06/26 13:46:52;;;;;;;1.23;0.25;;;;;;;;;;4999214;28;20561;-70
2021/06/26 13:49:17;;;;;;;15.85;0.60;;;;;;;;;;4999557;28;20276;-73
2021/06/26 13:51:43;;;;;;;3.60;0.20;;;;;;;;;;4998716;28;20373;-72
2021/06/26 13:54:09;;;;;;;6.57;1.27;;;;;;;;;;4996794;28;20048;-73
2021/06/26 13:56:34;;;;;;;1.23;0.22;;;;;;;;;;5000669;28;20030;-70
2021/06/26 13:59:00;;;;;;;0.70;0.10;;;;;;;;;;4997196;28;20381;-67
2021/06/26 14:01:26;;;;;;;2.20;0.30;;;;;;;;;;4999796;28;20513;-69
2021/06/26 14:03:51;;;;;;;0.40;0.30;;;;;;;;;;4992329;28;20089;-71
2021/06/26 14:06:19;;;;;;;4.15;0.55;;;;;;;;;;5003329;28;20038;-70
2021/06/26 14:08:45;;;;;;;0.73;0.30;;;;;;;;;;4997569;28;20061;-70
2021/06/26 14:11:11;;;;;;;2.15;0.40;;;;;;;;;;4997091;28;20080;-69
2021/06/26 14:13:37;;;;;;;2.47;0.38;;;;;;;;;;4998352;28;20096;-70
2021/06/26 14:16:03;;;;;;;2.58;0.68;;;;;;;;;;4999904;28;20074;-70
2021/06/26 14:18:28;;;;;;;2.03;0.30;;;;;;;;;;4996712;28;20085;-67
2021/06/26 14:20:54;;;;;;;0.88;0.20;;;;;;;;;;5000776;28;20067;-70
2021/06/26 14:23:19;;;;;;;4.60;0.47;;;;;;;;;;4980523;28;20030;-70
2021/06/26 14:25:45;;;;;;;2.33;0.50;;;;;;;;;;5003990;28;20033;-71
2021/06/26 14:28:11;;;;;;;2.28;0.30;;;;;;;;;;4998649;28;20030;-65
2021/06/26 14:30:37;;;;;;;1.27;0.32;;;;;;;;;;5001818;28;20061;-67
2021/06/26 14:33:03;;;;;;;2.85;0.73;;;;;;;;;;4995118;28;20061;-68
2021/06/26 14:35:29;;;;;;;2.35;0.28;;;;;;;;;;4989973;28;20428;-67
2021/06/26 14:37:54;;;;;;;0.70;0.30;;;;;;;;;;4994719;28;20033;-67
2021/06/26 14:40:21;;;;;;;2.75;0.30;;;;;;;;;;4979866;28;20402;-67
2021/06/26 14:42:47;;;;;;;2.53;0.52;;;;;;;;;;4994430;28;21203;-67